createdAt,value
2022-12-13T00:00:18.439Z,30.17
2022-12-13T00:01:20.242Z,30.50
2022-12-13T00:02:21.740Z,29.90
2022-12-13T00:03:23.287Z,30.50
2022-12-13T00:04:25.058Z,33.87
2022-12-13T00:05:26.642Z,32.27
2022-12-13T00:06:28.942Z,29.80
2022-12-13T00:07:30.294Z,32.50
2022-12-13T00:08:31.706Z,31.87
2022-12-13T00:09:33.138Z,33.40
2022-12-13T00:10:34.594Z,30.73
2022-12-13T00:11:38.825Z,32.90
2022-12-13T00:12:40.173Z,31.17
2022-12-13T00:13:42.417Z,31.77
2022-12-13T00:14:43.944Z,31.03
2022-12-13T00:15:55.291Z,30.37
2022-12-13T00:16:56.858Z,32.27
2022-12-13T00:17:58.236Z,31.60
2022-12-13T00:19:00.374Z,29.10
2022-12-13T00:20:01.963Z,28.00
2022-12-13T00:21:11.688Z,31.90
2022-12-13T00:22:13.378Z,29.27
2022-12-13T00:23:14.897Z,29.53
2022-12-13T00:24:16.642Z,31.50
2022-12-13T00:25:20.450Z,30.03
2022-12-13T00:26:23.490Z,29.23
2022-12-13T00:27:24.947Z,30.20
2022-12-13T00:28:26.398Z,28.53
2022-12-13T00:29:28.014Z,28.73
2022-12-13T00:30:31.744Z,29.83
2022-12-13T00:32:55.007Z,33.27
2022-12-13T00:33:56.465Z,27.27
2022-12-13T00:34:58.037Z,31.47
2022-12-13T00:35:59.502Z,30.27
2022-12-13T00:37:00.897Z,32.03
2022-12-13T00:38:02.400Z,29.47
2022-12-13T00:39:03.956Z,29.83
2022-12-13T00:40:05.721Z,31.23
2022-12-13T00:41:17.690Z,28.20
2022-12-13T00:42:19.053Z,34.33
2022-12-13T00:43:20.442Z,29.93
2022-12-13T00:44:22.054Z,31.10
2022-12-13T00:45:23.724Z,29.67
2022-12-13T00:46:25.617Z,32.37
2022-12-13T00:47:27.005Z,30.47
2022-12-13T00:48:28.475Z,30.97
2022-12-13T00:49:30.065Z,33.37
2022-12-13T00:50:31.594Z,29.23
2022-12-13T00:51:33.665Z,29.47
2022-12-13T00:52:34.993Z,29.43
2022-12-13T00:53:36.664Z,29.03
2022-12-13T00:54:38.054Z,31.67
2022-12-13T00:55:42.520Z,31.53
2022-12-13T00:56:43.917Z,30.10
2022-12-13T00:57:45.502Z,29.47
2022-12-13T00:58:51.698Z,29.03
2022-12-13T00:59:53.891Z,29.80
2022-12-13T01:01:13.215Z,30.40
2022-12-13T01:02:17.075Z,29.77
2022-12-13T01:03:25.383Z,31.80
2022-12-13T01:04:27.036Z,29.93
2022-12-13T01:06:12.547Z,30.63
2022-12-13T01:06:51.318Z,31.23
2022-12-13T01:07:52.982Z,30.93
2022-12-13T01:08:54.609Z,31.67
2022-12-13T01:09:57.696Z,30.57
2022-12-13T01:10:59.153Z,32.00
2022-12-13T01:12:01.877Z,31.83
2022-12-13T01:13:03.583Z,30.90
2022-12-13T01:14:05.103Z,29.20
2022-12-13T01:15:07.133Z,30.23
2022-12-13T01:16:10.327Z,29.70
2022-12-13T01:17:11.907Z,31.67
2022-12-13T01:18:14.365Z,31.93
2022-12-13T01:19:16.327Z,31.10
2022-12-13T01:20:17.856Z,32.57
2022-12-13T01:21:20.727Z,31.90
2022-12-13T01:22:23.782Z,29.90
2022-12-13T01:23:25.917Z,33.10
2022-12-13T01:24:27.697Z,30.43
2022-12-13T01:25:29.249Z,30.50
2022-12-13T01:26:31.038Z,27.23
2022-12-13T01:27:32.440Z,32.67
2022-12-13T01:28:34.062Z,31.20
2022-12-13T01:29:35.566Z,29.97
2022-12-13T01:30:37.207Z,29.83
2022-12-13T01:31:41.561Z,29.77
2022-12-13T01:32:43.076Z,29.00
2022-12-13T01:33:44.784Z,28.50
2022-12-13T01:34:46.167Z,30.07
2022-12-13T01:35:47.567Z,30.30
2022-12-13T01:36:48.961Z,28.67
2022-12-13T01:37:50.441Z,28.88
2022-12-13T01:38:51.794Z,29.73
2022-12-13T01:40:00.325Z,31.43
2022-12-13T01:41:01.764Z,29.73
2022-12-13T01:42:18.035Z,31.30
2022-12-13T01:43:19.512Z,30.70
2022-12-13T01:44:39.683Z,29.87
2022-12-13T01:45:41.590Z,28.90
2022-12-13T01:46:43.149Z,29.85
2022-12-13T01:47:49.529Z,30.90
2022-12-13T01:48:57.582Z,30.70
2022-12-13T01:50:04.224Z,30.65
2022-12-13T01:51:07.087Z,27.33
2022-12-13T01:52:10.536Z,29.13
2022-12-13T01:53:14.703Z,31.00
2022-12-13T01:54:21.243Z,28.43
2022-12-13T01:55:25.234Z,31.37
2022-12-13T01:56:30.171Z,30.13
2022-12-13T01:57:33.086Z,27.40
2022-12-13T01:58:35.146Z,30.30
2022-12-13T01:59:37.699Z,31.77
2022-12-13T02:00:42.000Z,29.83
2022-12-13T02:01:43.768Z,30.70
2022-12-13T02:02:47.032Z,32.15
2022-12-13T02:03:48.543Z,30.13
2022-12-13T02:04:54.654Z,29.60
2022-12-13T02:06:05.145Z,31.00
2022-12-13T02:07:07.040Z,29.13
2022-12-13T02:08:10.432Z,28.93
2022-12-13T02:09:12.242Z,30.60
2022-12-13T02:10:13.569Z,30.27
2022-12-13T02:11:16.977Z,30.10
2022-12-13T02:12:18.336Z,28.73
2022-12-13T02:13:19.635Z,27.23
2022-12-13T02:14:20.969Z,28.90
2022-12-13T02:15:22.909Z,28.77
2022-12-13T02:16:30.161Z,27.93
2022-12-13T02:17:54.549Z,28.00
2022-12-13T02:19:03.630Z,26.97
2022-12-13T02:20:07.925Z,27.52
2022-12-13T02:21:21.535Z,26.38
2022-12-13T02:22:22.950Z,27.37
2022-12-13T02:23:40.922Z,27.13
2022-12-13T02:24:52.665Z,27.83
2022-12-13T02:25:56.751Z,27.93
2022-12-13T02:27:00.647Z,28.25
2022-12-13T02:28:30.614Z,27.57
2022-12-13T02:29:52.196Z,27.50
2022-12-13T02:30:57.890Z,28.07
2022-12-13T02:32:08.623Z,27.33
2022-12-13T02:33:23.184Z,30.40
2022-12-13T02:34:26.895Z,29.20
2022-12-13T02:35:34.584Z,26.33
2022-12-13T02:36:47.501Z,27.73
2022-12-13T02:37:55.253Z,26.50
2022-12-13T02:39:06.268Z,28.10
2022-12-13T02:40:10.887Z,27.40
2022-12-13T02:41:34.356Z,25.37
2022-12-13T02:42:39.291Z,27.90
2022-12-13T02:43:45.907Z,25.93
2022-12-13T02:44:51.537Z,27.73
2022-12-13T02:45:59.558Z,26.97
2022-12-13T02:47:00.965Z,27.00
2022-12-13T02:48:04.960Z,27.13
2022-12-13T02:49:07.721Z,26.77
2022-12-13T02:50:09.682Z,24.80
2022-12-13T02:51:11.903Z,25.73
2022-12-13T02:52:14.674Z,24.90
2022-12-13T02:53:24.442Z,27.77
2022-12-13T02:54:25.818Z,27.43
2022-12-13T02:55:28.428Z,26.38
2022-12-13T02:56:30.948Z,27.33
2022-12-13T02:57:33.572Z,26.27
2022-12-13T02:58:37.230Z,27.43
2022-12-13T02:59:39.644Z,26.53
2022-12-13T03:00:40.926Z,27.87
2022-12-13T03:01:53.575Z,29.23
2022-12-13T03:03:14.403Z,26.45
2022-12-13T03:04:34.470Z,26.58
2022-12-13T03:06:00.673Z,27.25
2022-12-13T03:07:11.863Z,28.02
2022-12-13T03:08:18.547Z,25.50
2022-12-13T03:09:25.935Z,25.73
2022-12-13T03:10:33.219Z,26.00
2022-12-13T03:12:15.577Z,26.60
2022-12-13T03:13:38.029Z,27.33
2022-12-13T03:14:42.720Z,27.43
2022-12-13T03:15:56.262Z,26.50
2022-12-13T03:16:59.741Z,29.10
2022-12-13T03:18:04.510Z,28.10
2022-12-13T03:19:06.863Z,26.20
2022-12-13T03:20:22.832Z,27.77
2022-12-13T03:21:24.967Z,28.50
2022-12-13T03:22:26.343Z,28.23
2022-12-13T03:23:27.913Z,26.13
2022-12-13T03:24:29.243Z,24.73
2022-12-13T03:25:32.469Z,28.07
2022-12-13T03:26:34.465Z,28.03
2022-12-13T03:27:35.905Z,25.07
2022-12-13T03:28:37.950Z,27.00
2022-12-13T03:29:39.547Z,25.30
2022-12-13T03:30:40.897Z,27.70
2022-12-13T03:31:42.289Z,27.07
2022-12-13T03:32:43.730Z,27.07
2022-12-13T03:33:45.298Z,25.80
2022-12-13T03:34:49.626Z,25.67
2022-12-13T03:35:53.665Z,26.20
2022-12-13T03:36:55.041Z,25.73
2022-12-13T03:37:56.485Z,25.40
2022-12-13T03:38:57.965Z,25.13
2022-12-13T03:39:59.446Z,26.47
2022-12-13T03:41:02.830Z,28.67
2022-12-13T03:42:04.320Z,27.97
2022-12-13T03:43:05.807Z,31.43
2022-12-13T03:44:07.739Z,27.17
2022-12-13T03:45:09.328Z,29.40
2022-12-13T03:46:11.473Z,26.70
2022-12-13T03:47:12.891Z,29.33
2022-12-13T03:48:14.220Z,26.97
2022-12-13T03:49:24.186Z,25.43
2022-12-13T03:50:27.496Z,27.47
2022-12-13T03:51:29.020Z,30.53
2022-12-13T03:52:30.328Z,28.47
2022-12-13T03:53:33.226Z,27.97
2022-12-13T03:54:35.615Z,28.23
2022-12-13T03:55:37.052Z,28.40
2022-12-13T03:56:38.381Z,30.93
2022-12-13T03:57:39.859Z,28.17
2022-12-13T03:58:42.230Z,30.50
2022-12-13T03:59:43.622Z,30.03
2022-12-13T04:00:45.059Z,27.70
2022-12-13T04:01:46.454Z,30.03
2022-12-13T04:02:47.936Z,28.03
2022-12-13T04:03:49.285Z,32.57
2022-12-13T04:04:50.649Z,27.53
2022-12-13T04:05:51.947Z,31.20
2022-12-13T04:06:53.262Z,29.27
2022-12-13T04:07:54.610Z,28.60
2022-12-13T04:09:02.306Z,29.17
2022-12-13T04:10:04.371Z,32.70
2022-12-13T04:11:43.970Z,27.40
2022-12-13T04:13:03.696Z,29.10
2022-12-13T04:14:05.024Z,28.73
2022-12-13T04:15:06.692Z,28.43
2022-12-13T04:16:08.156Z,30.67
2022-12-13T04:17:09.533Z,29.40
2022-12-13T04:18:10.935Z,30.63
2022-12-13T04:19:12.285Z,27.63
2022-12-13T04:20:13.663Z,29.02
2022-12-13T04:21:14.983Z,32.53
2022-12-13T04:22:21.686Z,28.90
2022-12-13T04:23:26.056Z,30.80
2022-12-13T04:24:31.602Z,30.95
2022-12-13T04:25:33.469Z,26.55
2022-12-13T04:26:34.776Z,31.00
2022-12-13T04:27:37.973Z,30.50
2022-12-13T04:28:39.442Z,30.90
2022-12-13T04:29:40.801Z,30.73
2022-12-13T04:30:42.102Z,31.25
2022-12-13T04:31:43.445Z,29.93
2022-12-13T04:32:44.728Z,27.50
2022-12-13T04:33:46.028Z,30.40
2022-12-13T04:34:47.326Z,26.80
2022-12-13T04:35:49.012Z,27.05
2022-12-13T04:36:50.307Z,27.07
2022-12-13T04:37:51.631Z,25.92
2022-12-13T04:38:53.010Z,28.17
2022-12-13T04:39:54.347Z,28.33
2022-12-13T04:41:13.288Z,25.15
2022-12-13T04:42:14.773Z,24.65
2022-12-13T04:43:16.162Z,24.77
2022-12-13T04:44:27.877Z,25.30
2022-12-13T04:45:31.224Z,25.47
2022-12-13T04:46:32.886Z,24.27
2022-12-13T04:47:34.204Z,25.07
2022-12-13T04:48:35.533Z,23.77
2022-12-13T04:49:36.841Z,26.73
2022-12-13T04:50:38.175Z,22.60
2022-12-13T04:51:41.954Z,22.83
2022-12-13T04:52:49.069Z,23.43
2022-12-13T04:53:50.450Z,22.43
2022-12-13T04:54:55.992Z,24.90
2022-12-13T04:55:57.791Z,25.97
2022-12-13T04:56:59.303Z,24.80
2022-12-13T04:58:03.115Z,24.07
2022-12-13T04:59:04.453Z,24.83
2022-12-13T05:00:07.238Z,22.23
2022-12-13T05:01:09.309Z,21.90
2022-12-13T05:02:10.700Z,22.27
2022-12-13T05:03:15.561Z,23.20
2022-12-13T05:04:16.928Z,22.03
2022-12-13T05:05:21.099Z,20.80
2022-12-13T05:06:26.729Z,22.60
2022-12-13T05:07:29.466Z,22.90
2022-12-13T05:08:30.962Z,22.37
2022-12-13T05:09:32.398Z,26.97
2022-12-13T05:10:38.042Z,25.60
2022-12-13T05:11:45.569Z,23.73
2022-12-13T05:12:47.412Z,25.53
2022-12-13T05:13:48.739Z,23.20
2022-12-13T05:14:51.056Z,21.90
2022-12-13T05:15:56.630Z,23.67
2022-12-13T05:16:58.224Z,21.37
2022-12-13T05:18:09.822Z,20.03
2022-12-13T05:19:12.222Z,20.87
2022-12-13T05:20:13.572Z,20.13
2022-12-13T05:21:14.944Z,22.70
2022-12-13T05:22:20.226Z,22.83
2022-12-13T05:23:25.900Z,19.92
2022-12-13T05:24:27.216Z,21.38
2022-12-13T05:25:28.525Z,24.70
2022-12-13T05:26:29.972Z,22.53
2022-12-13T05:27:31.303Z,20.77
2022-12-13T05:28:32.678Z,19.10
2022-12-13T05:29:34.216Z,21.10
2022-12-13T05:30:38.005Z,21.23
2022-12-13T05:31:39.580Z,22.03
2022-12-13T05:32:42.776Z,21.70
2022-12-13T05:33:46.089Z,21.23
2022-12-13T05:34:47.500Z,19.75
2022-12-13T05:35:48.845Z,19.87
2022-12-13T05:36:50.881Z,22.73
2022-12-13T05:37:53.828Z,20.63
2022-12-13T05:38:56.402Z,18.20
2022-12-13T05:39:57.717Z,20.37
2022-12-13T05:40:59.123Z,20.90
2022-12-13T05:42:02.021Z,20.00
2022-12-13T05:43:03.909Z,22.33
2022-12-13T05:44:22.988Z,25.63
2022-12-13T05:45:24.669Z,25.00
2022-12-13T05:46:26.275Z,29.67
2022-12-13T05:47:27.752Z,25.30
2022-12-13T05:48:29.052Z,23.23
2022-12-13T05:49:30.500Z,23.30
2022-12-13T05:50:31.951Z,25.92
2022-12-13T05:51:33.288Z,26.50
2022-12-13T05:52:34.576Z,24.03
2022-12-13T05:53:36.072Z,26.90
2022-12-13T05:54:37.431Z,23.57
2022-12-13T05:55:44.429Z,25.95
2022-12-13T05:56:45.943Z,25.33
2022-12-13T05:57:50.485Z,26.53
2022-12-13T05:58:54.128Z,26.07
2022-12-13T06:00:30.440Z,25.73
2022-12-13T06:01:32.473Z,26.13
2022-12-13T06:02:40.837Z,24.95
2022-12-13T06:03:42.551Z,23.93
2022-12-13T06:04:44.595Z,26.15
2022-12-13T06:05:46.061Z,25.63
2022-12-13T06:06:48.449Z,24.63
2022-12-13T06:07:57.592Z,26.25
2022-12-13T06:09:04.280Z,26.33
2022-12-13T06:10:10.346Z,29.13
2022-12-13T06:11:31.195Z,29.13
2022-12-13T06:12:43.365Z,29.07
2022-12-13T06:13:45.292Z,29.30
2022-12-13T06:14:46.752Z,30.65
2022-12-13T06:15:48.296Z,28.73
2022-12-13T06:16:51.800Z,25.75
2022-12-13T06:17:53.187Z,26.50
2022-12-13T06:19:03.236Z,28.27
2022-12-13T06:20:23.372Z,28.13
2022-12-13T06:21:25.907Z,27.17
2022-12-13T06:22:34.653Z,29.83
2022-12-13T06:23:36.486Z,25.63
2022-12-13T06:24:38.151Z,26.47
2022-12-13T06:25:45.365Z,27.57
2022-12-13T06:26:51.082Z,28.17
2022-12-13T06:27:55.838Z,26.73
2022-12-13T06:28:57.340Z,27.90
2022-12-13T06:30:02.451Z,30.02
2022-12-13T06:31:10.306Z,26.70
2022-12-13T06:32:11.729Z,28.92
2022-12-13T06:33:13.228Z,28.88
2022-12-13T06:34:15.489Z,26.98
2022-12-13T06:35:28.704Z,29.93
2022-12-13T06:36:32.942Z,28.63
2022-12-13T06:37:36.521Z,28.15
2022-12-13T06:38:43.686Z,28.97
2022-12-13T06:39:45.362Z,27.23
2022-12-13T06:40:46.688Z,32.77
2022-12-13T06:41:48.169Z,29.67
2022-12-13T06:42:49.545Z,27.87
2022-12-13T06:43:50.869Z,27.77
2022-12-13T06:44:56.276Z,28.00
2022-12-13T06:45:57.917Z,30.20
2022-12-13T06:47:10.297Z,32.20
2022-12-13T06:48:18.738Z,28.58
2022-12-13T06:49:22.384Z,26.63
2022-12-13T06:50:23.933Z,29.23
2022-12-13T06:51:32.456Z,29.27
2022-12-13T06:52:36.336Z,28.57
2022-12-13T06:53:45.285Z,28.13
2022-12-13T06:54:46.753Z,27.95
2022-12-13T06:55:48.390Z,31.77
2022-12-13T06:56:52.054Z,28.63
2022-12-13T06:57:53.377Z,29.58
2022-12-13T06:59:01.920Z,26.42
2022-12-13T07:00:06.946Z,27.88
2022-12-13T07:01:24.368Z,30.08
2022-12-13T07:02:26.390Z,28.70
2022-12-13T07:03:32.188Z,27.42
2022-12-13T07:04:36.437Z,29.30
2022-12-13T07:05:43.201Z,27.85
2022-12-13T07:06:45.316Z,27.50
2022-12-13T07:07:46.706Z,26.88
2022-12-13T07:08:51.433Z,29.40
2022-12-13T07:09:56.966Z,24.30
2022-12-13T07:10:58.327Z,26.38
2022-12-13T07:11:59.786Z,25.67
2022-12-13T07:13:01.147Z,25.73
2022-12-13T07:14:02.542Z,27.73
2022-12-13T07:15:04.031Z,29.52
2022-12-13T07:16:05.667Z,30.15
2022-12-13T07:17:07.013Z,28.40
2022-12-13T07:18:08.405Z,28.67
2022-12-13T07:19:23.685Z,31.43
2022-12-13T07:20:32.299Z,29.52
2022-12-13T07:21:41.138Z,26.73
2022-12-13T07:22:47.833Z,30.02
2022-12-13T07:23:54.973Z,25.60
2022-12-13T07:25:01.601Z,29.73
2022-12-13T07:26:03.538Z,28.60
2022-12-13T07:27:10.291Z,30.03
2022-12-13T07:28:14.344Z,28.85
2022-12-13T07:29:22.096Z,29.27
2022-12-13T07:30:27.920Z,29.43
2022-12-13T07:31:29.500Z,31.63
2022-12-13T07:32:31.625Z,30.60
2022-12-13T07:33:36.000Z,33.80
2022-12-13T07:34:37.446Z,30.85
2022-12-13T07:35:43.982Z,28.85
2022-12-13T07:36:48.937Z,33.50
2022-12-13T07:37:50.324Z,32.47
2022-12-13T07:39:03.208Z,28.30
2022-12-13T07:40:07.080Z,30.90
2022-12-13T07:41:08.476Z,34.78
2022-12-13T07:42:12.131Z,34.42
2022-12-13T07:43:13.438Z,31.63
2022-12-13T07:44:15.143Z,36.80
2022-12-13T07:45:16.695Z,35.63
2022-12-13T07:46:25.966Z,36.38
2022-12-13T07:47:34.424Z,41.70
2022-12-13T07:48:35.705Z,42.50
2022-12-13T07:49:37.049Z,39.23
2022-12-13T07:50:39.725Z,39.57
2022-12-13T07:51:41.008Z,43.08
2022-12-13T07:52:42.312Z,42.87
2022-12-13T07:53:44.789Z,37.93
2022-12-13T07:56:28.002Z,36.13
2022-12-13T07:57:29.287Z,36.07
2022-12-13T07:58:30.965Z,33.97
2022-12-13T07:59:32.426Z,32.73
2022-12-13T08:00:33.867Z,32.45
2022-12-13T08:01:35.405Z,37.23
2022-12-13T08:02:37.003Z,38.07
2022-12-13T08:03:39.222Z,36.07
2022-12-13T08:04:46.775Z,36.23
2022-12-13T08:06:09.357Z,37.20
2022-12-13T08:07:10.744Z,35.00
2022-12-13T08:08:12.177Z,37.23
2022-12-13T08:09:13.595Z,41.37
2022-12-13T08:10:17.952Z,40.33
2022-12-13T08:11:22.371Z,31.83
2022-12-13T08:12:23.772Z,34.73
2022-12-13T08:13:26.533Z,33.27
2022-12-13T08:14:28.655Z,33.67
2022-12-13T08:15:30.048Z,30.35
2022-12-13T08:16:31.452Z,30.70
2022-12-13T08:17:32.953Z,29.25
2022-12-13T08:18:34.364Z,27.77
2022-12-13T08:19:35.869Z,31.73
2022-12-13T08:20:43.204Z,30.67
2022-12-13T08:22:01.950Z,30.57
2022-12-13T08:23:03.727Z,25.57
2022-12-13T08:24:05.535Z,23.17
2022-12-13T08:25:12.280Z,23.37
2022-12-13T08:26:13.737Z,23.63
2022-12-13T08:27:17.586Z,21.93
2022-12-13T08:28:18.993Z,23.73
2022-12-13T08:29:23.315Z,21.13
2022-12-13T08:30:35.211Z,23.40
2022-12-13T08:31:37.763Z,23.13
2022-12-13T08:32:39.149Z,22.23
2022-12-13T08:33:45.540Z,21.37
2022-12-13T08:34:51.274Z,21.30
2022-12-13T08:35:52.577Z,21.40
2022-12-13T08:36:53.947Z,19.40
2022-12-13T08:38:04.604Z,16.40
2022-12-13T08:39:09.056Z,19.90
2022-12-13T08:40:11.555Z,17.70
2022-12-13T08:41:13.164Z,17.73
2022-12-13T08:42:20.455Z,19.83
2022-12-13T08:43:24.967Z,16.80
2022-12-13T08:44:26.637Z,20.50
2022-12-13T08:45:28.836Z,16.97
2022-12-13T08:46:33.434Z,20.73
2022-12-13T08:47:41.308Z,16.83
2022-12-13T08:48:43.877Z,18.57
2022-12-13T08:49:46.295Z,17.70
2022-12-13T08:50:47.673Z,18.07
2022-12-13T08:51:49.326Z,21.63
2022-12-13T08:52:51.706Z,20.47
2022-12-13T08:53:52.994Z,18.93
2022-12-13T08:55:13.545Z,21.33
2022-12-13T08:56:15.384Z,20.10
2022-12-13T08:57:19.627Z,22.40
2022-12-13T08:58:20.917Z,19.20
2022-12-13T08:59:24.597Z,19.30
2022-12-13T09:00:26.061Z,18.23
2022-12-13T09:01:27.477Z,16.90
2022-12-13T09:02:31.248Z,17.17
2022-12-13T09:03:42.555Z,21.27
2022-12-13T09:04:43.961Z,20.00
2022-12-13T09:05:45.314Z,20.77
2022-12-13T09:06:46.677Z,21.57
2022-12-13T09:07:49.232Z,20.57
2022-12-13T09:08:52.874Z,18.20
2022-12-13T09:09:55.061Z,19.20
2022-12-13T09:10:59.046Z,18.60
2022-12-13T09:12:02.944Z,19.23
2022-12-13T09:13:12.925Z,17.60
2022-12-13T09:14:33.514Z,17.73
2022-12-13T09:15:38.441Z,18.10
2022-12-13T09:16:51.110Z,17.53
2022-12-13T09:17:53.169Z,17.90
2022-12-13T09:18:55.706Z,16.20
2022-12-13T09:19:58.831Z,16.60
2022-12-13T09:21:10.936Z,16.37
2022-12-13T09:22:14.499Z,16.67
2022-12-13T09:23:23.688Z,17.13
2022-12-13T09:24:26.150Z,17.57
2022-12-13T09:25:27.456Z,18.17
2022-12-13T09:26:38.243Z,19.80
2022-12-13T09:27:42.668Z,17.47
2022-12-13T09:28:44.011Z,18.63
2022-12-13T09:29:47.055Z,20.77
2022-12-13T09:30:51.490Z,18.07
2022-12-13T09:31:53.394Z,20.43
2022-12-13T09:32:56.025Z,18.20
2022-12-13T09:33:57.332Z,15.80
2022-12-13T09:34:59.068Z,16.47
2022-12-13T09:36:03.035Z,19.50
2022-12-13T09:37:13.336Z,16.67
2022-12-13T09:38:24.200Z,21.00
2022-12-13T09:39:25.517Z,18.73
2022-12-13T09:40:28.048Z,16.73
2022-12-13T09:41:32.172Z,15.87
2022-12-13T09:42:33.924Z,18.37
2022-12-13T09:43:43.332Z,16.03
2022-12-13T09:45:01.029Z,17.23
2022-12-13T09:46:13.374Z,16.33
2022-12-13T09:47:35.335Z,16.43
2022-12-13T09:48:37.059Z,17.17
2022-12-13T09:49:40.303Z,16.67
2022-12-13T09:50:53.100Z,16.70
2022-12-13T09:52:10.858Z,17.10
2022-12-13T09:53:21.833Z,17.37
2022-12-13T09:54:24.842Z,14.73
2022-12-13T09:55:30.261Z,15.93
2022-12-13T09:56:32.832Z,15.30
2022-12-13T09:57:36.567Z,16.60
2022-12-13T09:58:38.031Z,15.30
2022-12-13T09:59:41.190Z,15.57
2022-12-13T10:00:45.264Z,16.47
2022-12-13T10:01:46.849Z,16.10
2022-12-13T10:02:53.026Z,14.73
2022-12-13T10:03:55.858Z,15.53
2022-12-13T10:05:21.747Z,15.83
2022-12-13T10:06:25.046Z,13.40
2022-12-13T10:07:26.354Z,14.93
2022-12-13T10:08:31.992Z,15.30
2022-12-13T10:09:33.318Z,16.83
2022-12-13T10:10:39.535Z,15.43
2022-12-13T10:12:07.344Z,15.67
2022-12-13T10:13:19.752Z,14.37
2022-12-13T10:14:27.594Z,14.03
2022-12-13T10:15:29.592Z,16.20
2022-12-13T10:16:42.145Z,15.13
2022-12-13T10:17:51.553Z,14.33
2022-12-13T10:18:57.384Z,14.60
2022-12-13T10:19:58.913Z,16.17
2022-12-13T10:21:02.561Z,15.37
2022-12-13T10:22:04.965Z,13.73
2022-12-13T10:23:33.350Z,13.97
2022-12-13T10:24:36.796Z,15.90
2022-12-13T10:26:03.125Z,14.57
2022-12-13T10:27:15.668Z,13.70
2022-12-13T10:28:17.748Z,14.27
2022-12-13T10:29:19.661Z,15.27
2022-12-13T10:30:27.987Z,15.60
2022-12-13T10:31:30.124Z,13.83
2022-12-13T10:32:37.399Z,14.50
2022-12-13T10:33:43.091Z,14.80
2022-12-13T10:34:44.435Z,13.77
2022-12-13T10:36:01.040Z,13.70
2022-12-13T10:37:21.202Z,15.10
2022-12-13T10:38:31.690Z,13.47
2022-12-13T10:39:40.849Z,13.97
2022-12-13T10:40:46.577Z,14.90
2022-12-13T10:41:47.936Z,13.63
2022-12-13T10:43:05.716Z,13.23
2022-12-13T10:44:06.975Z,13.70
2022-12-13T10:45:23.247Z,13.87
2022-12-13T10:46:25.618Z,14.47
2022-12-13T10:47:27.120Z,13.77
2022-12-13T10:48:40.673Z,13.53
2022-12-13T10:49:49.906Z,13.33
2022-12-13T10:51:13.195Z,13.87
2022-12-13T10:52:30.989Z,12.63
2022-12-13T10:53:46.901Z,15.83
2022-12-13T10:54:51.821Z,13.43
2022-12-13T10:56:02.125Z,15.07
2022-12-13T10:57:04.532Z,12.80
2022-12-13T10:58:12.214Z,13.00
2022-12-13T10:59:32.352Z,14.17
2022-12-13T11:00:38.954Z,14.73
2022-12-13T11:01:42.864Z,14.17
2022-12-13T11:02:53.282Z,12.07
2022-12-13T11:04:25.522Z,13.50
2022-12-13T11:05:30.109Z,15.37
2022-12-13T11:06:44.663Z,14.80
2022-12-13T11:07:52.186Z,14.27
2022-12-13T11:08:56.470Z,14.30
2022-12-13T11:10:17.021Z,13.87
2022-12-13T11:11:25.139Z,11.50
2022-12-13T11:12:34.327Z,15.80
2022-12-13T11:13:54.875Z,12.07
2022-12-13T11:14:58.124Z,14.43
2022-12-13T11:15:59.616Z,15.67
2022-12-13T11:17:05.897Z,15.67
2022-12-13T11:18:08.541Z,17.97
2022-12-13T11:19:25.407Z,13.43
2022-12-13T11:20:32.877Z,15.37
2022-12-13T11:21:36.778Z,16.67
2022-12-13T11:22:46.633Z,12.93
2022-12-13T11:23:48.719Z,13.37
2022-12-13T11:24:51.855Z,12.83
2022-12-13T11:26:03.535Z,13.57
2022-12-13T11:27:25.234Z,12.90
2022-12-13T11:28:32.091Z,14.30
2022-12-13T11:29:43.066Z,13.60
2022-12-13T11:30:47.177Z,13.00
2022-12-13T11:31:51.749Z,13.37
2022-12-13T11:33:17.054Z,15.93
2022-12-13T11:34:33.976Z,13.80
2022-12-13T11:35:56.894Z,13.20
2022-12-13T11:37:01.893Z,13.60
2022-12-13T11:38:25.474Z,13.53
2022-12-13T11:39:27.125Z,15.87
2022-12-13T11:40:32.741Z,12.67
2022-12-13T11:41:37.249Z,15.03
2022-12-13T11:42:47.356Z,12.97
2022-12-13T11:43:53.670Z,14.27
2022-12-13T11:44:58.128Z,13.80
2022-12-13T11:46:05.492Z,14.57
2022-12-13T11:47:12.966Z,13.70
2022-12-13T11:48:20.382Z,12.53
2022-12-13T11:49:40.049Z,12.13
2022-12-13T11:50:42.871Z,17.17
2022-12-13T11:51:53.208Z,20.10
2022-12-13T11:52:56.224Z,20.27
2022-12-13T11:54:29.234Z,17.90
2022-12-13T11:55:33.505Z,14.10
2022-12-13T11:56:40.358Z,14.97
2022-12-13T11:57:46.700Z,15.70
2022-12-13T11:59:16.158Z,16.30
2022-12-13T12:00:35.802Z,15.37
2022-12-13T12:01:51.839Z,14.27
2022-12-13T12:02:55.594Z,16.13
2022-12-13T12:04:03.222Z,13.90
2022-12-13T12:05:23.433Z,14.10
2022-12-13T12:06:27.205Z,14.53
2022-12-13T12:07:37.582Z,13.70
2022-12-13T12:08:47.382Z,15.27
2022-12-13T12:09:51.782Z,14.03
2022-12-13T12:11:08.514Z,15.07
2022-12-13T12:12:23.809Z,14.07
2022-12-13T12:13:34.107Z,15.13
2022-12-13T12:15:05.256Z,12.67
2022-12-13T12:16:07.180Z,15.77
2022-12-13T12:17:12.231Z,14.07
2022-12-13T12:18:14.676Z,14.53
2022-12-13T12:19:17.151Z,14.53
2022-12-13T12:20:23.484Z,14.47
2022-12-13T12:21:56.501Z,13.80
2022-12-13T12:22:53.064Z,13.27
2022-12-13T12:23:54.417Z,16.00
2022-12-13T12:25:14.114Z,12.40
2022-12-13T12:26:17.504Z,12.73
2022-12-13T12:27:51.286Z,15.00
2022-12-13T12:28:55.475Z,14.70
2022-12-13T12:30:08.531Z,16.13
2022-12-13T12:31:19.777Z,13.63
2022-12-13T12:32:24.203Z,14.27
2022-12-13T12:33:25.522Z,15.50
2022-12-13T12:34:50.148Z,13.27
2022-12-13T12:36:07.238Z,13.90
2022-12-13T12:37:27.448Z,13.97
2022-12-13T12:38:31.783Z,12.70
2022-12-13T12:39:42.900Z,15.30
2022-12-13T12:41:15.557Z,12.33
2022-12-13T12:42:20.373Z,14.10
2022-12-13T12:43:36.007Z,15.87
2022-12-13T12:44:50.464Z,12.87
2022-12-13T12:45:56.700Z,13.07
2022-12-13T12:48:53.758Z,14.90
2022-12-13T12:49:57.691Z,13.87
2022-12-13T12:51:16.872Z,13.83
2022-12-13T12:52:23.765Z,14.33
2022-12-13T12:53:36.584Z,15.00
2022-12-13T12:54:47.140Z,14.27
2022-12-13T12:55:56.081Z,14.73
2022-12-13T12:57:09.365Z,14.03
2022-12-13T12:58:10.687Z,11.83
2022-12-13T12:59:30.729Z,14.53
2022-12-13T13:01:01.588Z,13.80
2022-12-13T13:02:10.126Z,14.33
2022-12-13T13:03:18.850Z,13.20
2022-12-13T13:04:32.997Z,12.27
2022-12-13T13:06:06.860Z,15.60
2022-12-13T13:07:23.308Z,14.77
2022-12-13T13:08:28.748Z,13.57
2022-12-13T13:09:31.013Z,15.03
2022-12-13T13:10:32.458Z,12.67
2022-12-13T13:11:35.143Z,14.23
2022-12-13T13:12:44.852Z,14.57
2022-12-13T13:13:48.449Z,16.27
2022-12-13T13:14:49.837Z,14.53
2022-12-13T13:15:55.706Z,13.43
2022-12-13T13:16:57.564Z,14.53
2022-12-13T13:17:59.629Z,14.77
2022-12-13T13:19:02.478Z,14.13
2022-12-13T13:20:11.621Z,15.40
2022-12-13T13:21:27.595Z,15.20
2022-12-13T13:22:32.872Z,17.20
2022-12-13T13:23:40.699Z,17.57
2022-12-13T13:24:42.498Z,17.17
2022-12-13T13:26:15.898Z,15.07
2022-12-13T13:27:09.571Z,15.60
2022-12-13T13:28:15.522Z,14.73
2022-12-13T13:29:27.055Z,17.83
2022-12-13T13:30:29.720Z,14.87
2022-12-13T13:31:51.302Z,12.60
2022-12-13T13:32:54.005Z,13.77
2022-12-13T13:33:55.825Z,14.93
2022-12-13T13:35:24.779Z,17.60
2022-12-13T13:36:41.636Z,16.30
2022-12-13T13:37:47.462Z,16.57
2022-12-13T13:38:50.430Z,14.53
2022-12-13T13:39:55.479Z,14.00
2022-12-13T13:40:56.791Z,14.40
2022-12-13T13:42:13.445Z,16.20
2022-12-13T13:43:19.399Z,16.03
2022-12-13T13:44:32.472Z,17.37
2022-12-13T13:45:54.095Z,15.97
2022-12-13T13:47:14.897Z,18.80
2022-12-13T13:48:28.546Z,15.77
2022-12-13T13:49:31.657Z,16.60
2022-12-13T13:50:43.378Z,15.37
2022-12-13T13:52:23.744Z,15.20
2022-12-13T13:53:22.909Z,13.67
2022-12-13T13:54:33.567Z,15.97
2022-12-13T13:55:46.857Z,14.00
2022-12-13T13:57:06.466Z,14.20
2022-12-13T13:58:14.132Z,14.90
2022-12-13T13:59:42.145Z,13.63
2022-12-13T14:01:02.295Z,15.07
2022-12-13T14:02:17.896Z,14.03
2022-12-13T14:03:38.488Z,15.17
2022-12-13T14:04:46.559Z,16.43
2022-12-13T14:06:01.188Z,17.83
2022-12-13T14:07:22.071Z,15.17
2022-12-13T14:08:38.377Z,15.20
2022-12-13T14:09:53.329Z,15.27
2022-12-13T14:11:13.339Z,17.00
2022-12-13T14:12:33.086Z,15.73
2022-12-13T14:13:53.133Z,17.27
2022-12-13T14:15:13.259Z,17.50
2022-12-13T14:16:33.447Z,15.40
2022-12-13T14:18:01.453Z,15.55